Russell, New York
Current Conditions -  °F | °C
As of 9:53 PM on Saturday 25 Oct 2014 (Local Time) from KMSS Reporting Station
Broken Clouds Broken Clouds  
Wind Chill: 51°   Ceiling: 9500
Heat Index: 51°   Visibility: 7mi
Dew Point: 48°   Wind: 10mph
Humidity: 89%   Direction: 220°SW
Pressure: 29.47"   Gusts: NA
Location:  44.43°N, 75.15°W
Report Text: KMSS 260153Z AUTO 22009KT 7SM FEW060 BKN095 11/09 A2947 RMK AO2 SLP983 T01060089
Loading
Personal Weather Stations






























Interactive Weather Map
Tropical Storm Tracking
New forecast layout! Learn more

10-Day Weather Forecast

Advertisements
Track Severe Weather on mobile